sensor_id;sensor_type;location;lat;lon;timestamp;P1;durP1;ratioP1;P2;durP2;ratioP2
583;SDS011;27024;54.068;12.116;2023-04-10T00:00:19;12.27;;;6.25;;
583;SDS011;27024;54.068;12.116;2023-04-10T00:02:46;12.35;;;6.60;;
583;SDS011;27024;54.068;12.116;2023-04-10T00:05:14;10.57;;;6.05;;
583;SDS011;27024;54.068;12.116;2023-04-10T00:07:41;12.10;;;6.70;;
583;SDS011;27024;54.068;12.116;2023-04-10T00:10:08;10.50;;;5.63;;
583;SDS011;27024;54.068;12.116;2023-04-10T00:12:35;10.82;;;5.35;;
583;SDS011;27024;54.068;12.116;2023-04-10T00:15:03;10.57;;;5.93;;
583;SDS011;27024;54.068;12.116;2023-04-10T00:17:30;10.63;;;5.95;;
583;SDS011;27024;54.068;12.116;2023-04-10T00:19:57;10.52;;;5.57;;
583;SDS011;27024;54.068;12.116;2023-04-10T00:22:24;12.32;;;5.72;;
583;SDS011;27024;54.068;12.116;2023-04-10T00:24:52;12.95;;;5.50;;
583;SDS011;27024;54.068;12.116;2023-04-10T00:27:19;10.95;;;6.32;;
583;SDS011;27024;54.068;12.116;2023-04-10T00:29:45;10.82;;;6.22;;
583;SDS011;27024;54.068;12.116;2023-04-10T00:32:12;11.38;;;5.75;;
583;SDS011;27024;54.068;12.116;2023-04-10T00:34:39;10.05;;;5.65;;
583;SDS011;27024;54.068;12.116;2023-04-10T00:37:06;12.88;;;6.20;;
583;SDS011;27024;54.068;12.116;2023-04-10T00:39:33;11.05;;;5.47;;
583;SDS011;27024;54.068;12.116;2023-04-10T00:42:00;10.68;;;5.55;;
583;SDS011;27024;54.068;12.116;2023-04-10T00:44:27;14.02;;;7.55;;
583;SDS011;27024;54.068;12.116;2023-04-10T00:46:54;10.63;;;6.20;;
583;SDS011;27024;54.068;12.116;2023-04-10T00:49:21;11.63;;;5.85;;
583;SDS011;27024;54.068;12.116;2023-04-10T00:51:48;16.00;;;6.07;;
583;SDS011;27024;54.068;12.116;2023-04-10T00:54:15;9.57;;;5.65;;
583;SDS011;27024;54.068;12.116;2023-04-10T00:56:42;14.23;;;6.38;;
583;SDS011;27024;54.068;12.116;2023-04-10T00:59:10;12.15;;;7.10;;
583;SDS011;27024;54.068;12.116;2023-04-10T01:01:37;11.57;;;5.70;;
583;SDS011;27024;54.068;12.116;2023-04-10T01:04:04;12.57;;;5.95;;
583;SDS011;27024;54.068;12.116;2023-04-10T01:14:48;10.82;;;5.25;;
583;SDS011;27024;54.068;12.116;2023-04-10T01:17:35;11.25;;;5.88;;
583;SDS011;27024;54.068;12.116;2023-04-10T01:20:20;10.00;;;5.45;;
583;SDS011;27024;54.068;12.116;2023-04-10T01:25:37;11.65;;;6.00;;
583;SDS011;27024;54.068;12.116;2023-04-10T01:30:41;11.55;;;6.07;;
583;SDS011;27024;54.068;12.116;2023-04-10T01:33:11;10.57;;;6.00;;
583;SDS011;27024;54.068;12.116;2023-04-10T01:35:42;13.30;;;6.28;;
583;SDS011;27024;54.068;12.116;2023-04-10T01:38:13;16.90;;;7.30;;
583;SDS011;27024;54.068;12.116;2023-04-10T01:40:42;13.77;;;6.82;;
583;SDS011;27024;54.068;12.116;2023-04-10T01:43:15;13.18;;;6.00;;
583;SDS011;27024;54.068;12.116;2023-04-10T01:45:44;13.63;;;6.65;;
583;SDS011;27024;54.068;12.116;2023-04-10T01:48:13;12.73;;;6.10;;
583;SDS011;27024;54.068;12.116;2023-04-10T01:50:43;13.25;;;6.53;;
583;SDS011;27024;54.068;12.116;2023-04-10T01:53:13;12.35;;;6.03;;
583;SDS011;27024;54.068;12.116;2023-04-10T01:55:40;11.75;;;6.38;;
583;SDS011;27024;54.068;12.116;2023-04-10T01:58:07;13.63;;;6.68;;
583;SDS011;27024;54.068;12.116;2023-04-10T02:00:38;11.30;;;6.60;;
583;SDS011;27024;54.068;12.116;2023-04-10T02:03:09;14.48;;;6.72;;
583;SDS011;27024;54.068;12.116;2023-04-10T02:06:26;14.68;;;6.60;;
583;SDS011;27024;54.068;12.116;2023-04-10T02:08:41;15.70;;;7.10;;
583;SDS011;27024;54.068;12.116;2023-04-10T02:13:50;14.55;;;7.05;;
583;SDS011;27024;54.068;12.116;2023-04-10T02:16:19;11.68;;;6.47;;
583;SDS011;27024;54.068;12.116;2023-04-10T02:18:48;11.60;;;6.88;;
583;SDS011;27024;54.068;12.116;2023-04-10T02:21:17;13.43;;;6.63;;
583;SDS011;27024;54.068;12.116;2023-04-10T02:23:44;12.45;;;6.25;;
583;SDS011;27024;54.068;12.116;2023-04-10T02:26:11;11.63;;;6.47;;
583;SDS011;27024;54.068;12.116;2023-04-10T02:28:38;14.82;;;7.10;;
583;SDS011;27024;54.068;12.116;2023-04-10T02:31:05;15.13;;;7.18;;
583;SDS011;27024;54.068;12.116;2023-04-10T02:33:33;13.30;;;6.88;;
583;SDS011;27024;54.068;12.116;2023-04-10T02:36:00;13.85;;;7.60;;
583;SDS011;27024;54.068;12.116;2023-04-10T02:38:27;11.13;;;5.88;;
583;SDS011;27024;54.068;12.116;2023-04-10T02:40:54;14.48;;;6.82;;
583;SDS011;27024;54.068;12.116;2023-04-10T02:43:22;13.98;;;7.47;;
583;SDS011;27024;54.068;12.116;2023-04-10T02:45:48;11.52;;;6.30;;
583;SDS011;27024;54.068;12.116;2023-04-10T02:48:15;11.10;;;6.28;;
583;SDS011;27024;54.068;12.116;2023-04-10T02:50:42;13.60;;;6.82;;
583;SDS011;27024;54.068;12.116;2023-04-10T02:53:15;12.88;;;6.70;;
583;SDS011;27024;54.068;12.116;2023-04-10T02:55:42;13.45;;;6.90;;
583;SDS011;27024;54.068;12.116;2023-04-10T02:58:09;11.75;;;6.65;;
583;SDS011;27024;54.068;12.116;2023-04-10T03:00:39;13.15;;;6.90;;
583;SDS011;27024;54.068;12.116;2023-04-10T03:03:06;13.38;;;7.55;;
583;SDS011;27024;54.068;12.116;2023-04-10T03:05:33;12.43;;;7.07;;
583;SDS011;27024;54.068;12.116;2023-04-10T03:08:00;16.20;;;8.23;;
583;SDS011;27024;54.068;12.116;2023-04-10T03:10:27;14.35;;;7.22;;
583;SDS011;27024;54.068;12.116;2023-04-10T03:12:54;13.68;;;7.70;;
583;SDS011;27024;54.068;12.116;2023-04-10T03:15:21;15.68;;;8.32;;
583;SDS011;27024;54.068;12.116;2023-04-10T03:17:48;14.98;;;7.57;;
583;SDS011;27024;54.068;12.116;2023-04-10T03:20:15;15.68;;;8.25;;
583;SDS011;27024;54.068;12.116;2023-04-10T03:22:41;15.23;;;7.63;;
583;SDS011;27024;54.068;12.116;2023-04-10T03:25:08;18.17;;;8.02;;
583;SDS011;27024;54.068;12.116;2023-04-10T03:27:35;15.43;;;8.68;;
583;SDS011;27024;54.068;12.116;2023-04-10T03:30:02;16.42;;;8.57;;
583;SDS011;27024;54.068;12.116;2023-04-10T03:32:29;16.67;;;8.13;;
583;SDS011;27024;54.068;12.116;2023-04-10T03:34:56;16.10;;;8.18;;
583;SDS011;27024;54.068;12.116;2023-04-10T03:37:24;15.35;;;8.60;;
583;SDS011;27024;54.068;12.116;2023-04-10T03:39:52;16.65;;;8.23;;
583;SDS011;27024;54.068;12.116;2023-04-10T03:42:19;13.07;;;7.53;;
583;SDS011;27024;54.068;12.116;2023-04-10T03:44:46;13.50;;;7.30;;
583;SDS011;27024;54.068;12.116;2023-04-10T03:47:13;13.55;;;7.25;;
583;SDS011;27024;54.068;12.116;2023-04-10T03:49:40;16.30;;;8.40;;
583;SDS011;27024;54.068;12.116;2023-04-10T03:52:07;18.67;;;9.15;;
583;SDS011;27024;54.068;12.116;2023-04-10T03:54:34;15.40;;;7.55;;
583;SDS011;27024;54.068;12.116;2023-04-10T03:57:00;14.65;;;7.82;;
583;SDS011;27024;54.068;12.116;2023-04-10T03:59:27;13.85;;;8.13;;
583;SDS011;27024;54.068;12.116;2023-04-10T04:02:05;14.65;;;7.88;;
583;SDS011;27024;54.068;12.116;2023-04-10T04:04:32;15.88;;;8.13;;
583;SDS011;27024;54.068;12.116;2023-04-10T04:06:59;14.05;;;8.30;;
583;SDS011;27024;54.068;12.116;2023-04-10T04:09:26;16.17;;;8.30;;
583;SDS011;27024;54.068;12.116;2023-04-10T04:11:53;14.27;;;7.80;;
583;SDS011;27024;54.068;12.116;2023-04-10T04:14:19;17.75;;;7.85;;
583;SDS011;27024;54.068;12.116;2023-04-10T04:16:46;14.73;;;8.00;;
583;SDS011;27024;54.068;12.116;2023-04-10T04:19:13;14.55;;;8.30;;
583;SDS011;27024;54.068;12.116;2023-04-10T04:21:41;15.80;;;8.40;;
583;SDS011;27024;54.068;12.116;2023-04-10T04:24:07;15.73;;;8.38;;
583;SDS011;27024;54.068;12.116;2023-04-10T04:26:34;16.90;;;7.80;;
583;SDS011;27024;54.068;12.116;2023-04-10T04:29:01;17.55;;;8.23;;
583;SDS011;27024;54.068;12.116;2023-04-10T04:31:28;12.80;;;7.68;;
583;SDS011;27024;54.068;12.116;2023-04-10T04:33:58;14.85;;;8.57;;
583;SDS011;27024;54.068;12.116;2023-04-10T04:36:26;18.50;;;8.13;;
583;SDS011;27024;54.068;12.116;2023-04-10T04:38:53;13.65;;;8.45;;
583;SDS011;27024;54.068;12.116;2023-04-10T04:41:20;13.13;;;7.85;;
583;SDS011;27024;54.068;12.116;2023-04-10T04:43:47;16.60;;;8.27;;
583;SDS011;27024;54.068;12.116;2023-04-10T04:46:14;14.07;;;7.95;;
583;SDS011;27024;54.068;12.116;2023-04-10T04:48:41;13.60;;;8.05;;
583;SDS011;27024;54.068;12.116;2023-04-10T04:51:08;14.00;;;8.00;;
583;SDS011;27024;54.068;12.116;2023-04-10T04:53:35;14.55;;;8.05;;
583;SDS011;27024;54.068;12.116;2023-04-10T04:56:02;14.32;;;8.07;;
583;SDS011;27024;54.068;12.116;2023-04-10T04:58:29;15.32;;;8.85;;
583;SDS011;27024;54.068;12.116;2023-04-10T05:00:56;17.25;;;7.88;;
583;SDS011;27024;54.068;12.116;2023-04-10T05:03:22;13.63;;;8.18;;
583;SDS011;27024;54.068;12.116;2023-04-10T05:05:50;16.10;;;8.20;;
583;SDS011;27024;54.068;12.116;2023-04-10T05:08:17;14.38;;;7.78;;
583;SDS011;27024;54.068;12.116;2023-04-10T05:10:43;14.57;;;8.27;;
583;SDS011;27024;54.068;12.116;2023-04-10T05:13:10;13.50;;;7.65;;
583;SDS011;27024;54.068;12.116;2023-04-10T05:15:38;14.85;;;7.53;;
583;SDS011;27024;54.068;12.116;2023-04-10T05:18:04;13.68;;;7.68;;
583;SDS011;27024;54.068;12.116;2023-04-10T05:20:33;14.02;;;7.80;;
583;SDS011;27024;54.068;12.116;2023-04-10T05:23:01;15.35;;;7.30;;
583;SDS011;27024;54.068;12.116;2023-04-10T05:25:28;13.50;;;7.57;;
583;SDS011;27024;54.068;12.116;2023-04-10T05:27:55;15.65;;;7.47;;
583;SDS011;27024;54.068;12.116;2023-04-10T05:30:22;14.27;;;7.28;;
583;SDS011;27024;54.068;12.116;2023-04-10T05:32:50;13.18;;;7.38;;
583;SDS011;27024;54.068;12.116;2023-04-10T05:35:16;13.80;;;8.30;;
583;SDS011;27024;54.068;12.116;2023-04-10T05:37:43;13.65;;;7.40;;
583;SDS011;27024;54.068;12.116;2023-04-10T05:40:10;12.40;;;7.25;;
583;SDS011;27024;54.068;12.116;2023-04-10T05:42:37;11.95;;;7.03;;
583;SDS011;27024;54.068;12.116;2023-04-10T05:45:04;12.98;;;7.20;;
583;SDS011;27024;54.068;12.116;2023-04-10T05:47:32;13.90;;;7.22;;
583;SDS011;27024;54.068;12.116;2023-04-10T05:49:59;12.00;;;7.13;;
583;SDS011;27024;54.068;12.116;2023-04-10T05:52:25;12.15;;;6.68;;
583;SDS011;27024;54.068;12.116;2023-04-10T05:54:52;12.93;;;7.43;;
583;SDS011;27024;54.068;12.116;2023-04-10T05:57:19;12.63;;;6.35;;
583;SDS011;27024;54.068;12.116;2023-04-10T05:59:46;11.27;;;6.63;;
583;SDS011;27024;54.068;12.116;2023-04-10T06:02:12;12.25;;;6.57;;
583;SDS011;27024;54.068;12.116;2023-04-10T06:04:39;11.98;;;7.00;;
583;SDS011;27024;54.068;12.116;2023-04-10T06:07:06;13.50;;;7.25;;
583;SDS011;27024;54.068;12.116;2023-04-10T06:09:33;12.10;;;6.53;;
583;SDS011;27024;54.068;12.116;2023-04-10T06:12:00;13.02;;;7.18;;
583;SDS011;27024;54.068;12.116;2023-04-10T06:14:27;10.98;;;6.35;;
583;SDS011;27024;54.068;12.116;2023-04-10T06:16:53;11.50;;;6.95;;
583;SDS011;27024;54.068;12.116;2023-04-10T06:19:20;10.68;;;6.85;;
583;SDS011;27024;54.068;12.116;2023-04-10T06:21:47;11.73;;;6.57;;
583;SDS011;27024;54.068;12.116;2023-04-10T06:24:14;10.55;;;6.50;;
583;SDS011;27024;54.068;12.116;2023-04-10T06:26:41;11.18;;;6.18;;
583;SDS011;27024;54.068;12.116;2023-04-10T06:29:08;11.40;;;6.18;;
583;SDS011;27024;54.068;12.116;2023-04-10T06:31:35;10.45;;;5.80;;
583;SDS011;27024;54.068;12.116;2023-04-10T06:34:01;11.25;;;5.75;;
583;SDS011;27024;54.068;12.116;2023-04-10T06:36:28;11.00;;;6.30;;
583;SDS011;27024;54.068;12.116;2023-04-10T06:38:55;9.00;;;5.15;;
583;SDS011;27024;54.068;12.116;2023-04-10T06:41:22;9.88;;;5.82;;
583;SDS011;27024;54.068;12.116;2023-04-10T06:43:49;10.82;;;6.22;;
583;SDS011;27024;54.068;12.116;2023-04-10T06:46:16;7.68;;;5.15;;
583;SDS011;27024;54.068;12.116;2023-04-10T06:48:43;11.85;;;5.88;;
583;SDS011;27024;54.068;12.116;2023-04-10T06:51:10;9.80;;;5.93;;
583;SDS011;27024;54.068;12.116;2023-04-10T06:53:37;9.43;;;5.18;;
583;SDS011;27024;54.068;12.116;2023-04-10T06:56:04;9.98;;;5.40;;
583;SDS011;27024;54.068;12.116;2023-04-10T06:58:31;9.88;;;5.60;;
583;SDS011;27024;54.068;12.116;2023-04-10T07:00:58;9.55;;;5.80;;
583;SDS011;27024;54.068;12.116;2023-04-10T07:05:58;8.82;;;5.10;;
583;SDS011;27024;54.068;12.116;2023-04-10T07:08:27;9.40;;;5.47;;
583;SDS011;27024;54.068;12.116;2023-04-10T07:10:54;10.02;;;5.82;;
583;SDS011;27024;54.068;12.116;2023-04-10T07:13:23;7.43;;;4.97;;
583;SDS011;27024;54.068;12.116;2023-04-10T07:15:50;8.65;;;5.25;;
583;SDS011;27024;54.068;12.116;2023-04-10T07:18:17;9.93;;;5.28;;
583;SDS011;27024;54.068;12.116;2023-04-10T07:20:44;8.27;;;5.72;;
583;SDS011;27024;54.068;12.116;2023-04-10T07:23:12;10.00;;;5.53;;
583;SDS011;27024;54.068;12.116;2023-04-10T07:25:40;10.68;;;6.60;;
583;SDS011;27024;54.068;12.116;2023-04-10T07:28:07;10.45;;;5.50;;
583;SDS011;27024;54.068;12.116;2023-04-10T07:30:34;9.35;;;5.40;;
583;SDS011;27024;54.068;12.116;2023-04-10T07:33:02;8.50;;;5.57;;
583;SDS011;27024;54.068;12.116;2023-04-10T07:35:29;10.18;;;5.20;;
583;SDS011;27024;54.068;12.116;2023-04-10T07:37:56;9.80;;;5.45;;
583;SDS011;27024;54.068;12.116;2023-04-10T07:40:23;9.32;;;5.38;;
583;SDS011;27024;54.068;12.116;2023-04-10T07:42:50;8.75;;;5.60;;
583;SDS011;27024;54.068;12.116;2023-04-10T07:45:19;9.45;;;6.28;;
583;SDS011;27024;54.068;12.116;2023-04-10T07:47:46;11.45;;;5.60;;
583;SDS011;27024;54.068;12.116;2023-04-10T07:50:13;9.05;;;5.40;;
583;SDS011;27024;54.068;12.116;2023-04-10T07:52:40;10.25;;;5.65;;
583;SDS011;27024;54.068;12.116;2023-04-10T07:55:07;12.40;;;6.13;;
583;SDS011;27024;54.068;12.116;2023-04-10T07:57:34;12.30;;;6.13;;
583;SDS011;27024;54.068;12.116;2023-04-10T08:00:01;11.70;;;6.55;;
583;SDS011;27024;54.068;12.116;2023-04-10T08:02:28;11.20;;;6.22;;
583;SDS011;27024;54.068;12.116;2023-04-10T08:04:56;11.52;;;6.05;;
583;SDS011;27024;54.068;12.116;2023-04-10T08:07:23;10.02;;;5.82;;
583;SDS011;27024;54.068;12.116;2023-04-10T08:09:50;13.57;;;6.50;;
583;SDS011;27024;54.068;12.116;2023-04-10T08:12:16;12.88;;;6.68;;
583;SDS011;27024;54.068;12.116;2023-04-10T08:14:44;14.57;;;7.80;;
583;SDS011;27024;54.068;12.116;2023-04-10T08:17:11;12.85;;;6.78;;
583;SDS011;27024;54.068;12.116;2023-04-10T08:19:41;15.68;;;7.45;;
583;SDS011;27024;54.068;12.116;2023-04-10T08:22:08;16.15;;;8.55;;
583;SDS011;27024;54.068;12.116;2023-04-10T08:24:36;18.60;;;9.10;;
583;SDS011;27024;54.068;12.116;2023-04-10T08:27:02;15.43;;;8.70;;
583;SDS011;27024;54.068;12.116;2023-04-10T08:29:29;17.40;;;8.90;;
583;SDS011;27024;54.068;12.116;2023-04-10T08:31:56;17.65;;;10.02;;
583;SDS011;27024;54.068;12.116;2023-04-10T08:34:26;18.83;;;9.95;;
583;SDS011;27024;54.068;12.116;2023-04-10T08:36:53;19.30;;;9.85;;
583;SDS011;27024;54.068;12.116;2023-04-10T08:39:20;18.50;;;9.30;;
583;SDS011;27024;54.068;12.116;2023-04-10T08:41:47;17.65;;;9.32;;
583;SDS011;27024;54.068;12.116;2023-04-10T08:44:14;15.43;;;9.45;;
583;SDS011;27024;54.068;12.116;2023-04-10T08:46:43;17.42;;;10.10;;
583;SDS011;27024;54.068;12.116;2023-04-10T08:49:15;18.55;;;10.13;;
583;SDS011;27024;54.068;12.116;2023-04-10T08:51:50;17.17;;;9.05;;
583;SDS011;27024;54.068;12.116;2023-04-10T08:54:27;16.50;;;9.15;;
583;SDS011;27024;54.068;12.116;2023-04-10T08:56:55;16.80;;;9.27;;
583;SDS011;27024;54.068;12.116;2023-04-10T08:59:24;18.15;;;9.98;;
583;SDS011;27024;54.068;12.116;2023-04-10T09:01:51;19.67;;;9.82;;
583;SDS011;27024;54.068;12.116;2023-04-10T09:04:19;18.83;;;10.05;;
583;SDS011;27024;54.068;12.116;2023-04-10T09:06:46;18.15;;;9.68;;
583;SDS011;27024;54.068;12.116;2023-04-10T09:09:13;17.63;;;9.68;;
583;SDS011;27024;54.068;12.116;2023-04-10T09:14:43;17.50;;;9.77;;
583;SDS011;27024;54.068;12.116;2023-04-10T09:19:47;16.33;;;9.70;;
583;SDS011;27024;54.068;12.116;2023-04-10T09:22:28;14.40;;;10.73;;
583;SDS011;27024;54.068;12.116;2023-04-10T09:25:01;16.05;;;9.73;;
583;SDS011;27024;54.068;12.116;2023-04-10T09:27:30;20.67;;;11.77;;
583;SDS011;27024;54.068;12.116;2023-04-10T09:29:58;17.77;;;9.32;;
583;SDS011;27024;54.068;12.116;2023-04-10T09:32:41;17.63;;;10.52;;
583;SDS011;27024;54.068;12.116;2023-04-10T09:35:10;19.00;;;12.18;;
583;SDS011;27024;54.068;12.116;2023-04-10T09:37:44;15.73;;;9.30;;
583;SDS011;27024;54.068;12.116;2023-04-10T09:40:19;18.95;;;11.30;;
583;SDS011;27024;54.068;12.116;2023-04-10T09:42:47;17.77;;;12.25;;
583;SDS011;27024;54.068;12.116;2023-04-10T09:45:14;15.38;;;10.63;;
583;SDS011;27024;54.068;12.116;2023-04-10T09:53:09;15.18;;;10.32;;
583;SDS011;27024;54.068;12.116;2023-04-10T09:55:38;15.80;;;10.10;;
583;SDS011;27024;54.068;12.116;2023-04-10T09:58:06;13.77;;;9.95;;
583;SDS011;27024;54.068;12.116;2023-04-10T10:00:47;13.95;;;8.70;;
583;SDS011;27024;54.068;12.116;2023-04-10T10:03:15;15.38;;;8.93;;
583;SDS011;27024;54.068;12.116;2023-04-10T10:05:48;13.73;;;10.02;;
583;SDS011;27024;54.068;12.116;2023-04-10T10:08:16;13.80;;;9.45;;
583;SDS011;27024;54.068;12.116;2023-04-10T10:10:45;15.13;;;9.73;;
583;SDS011;27024;54.068;12.116;2023-04-10T10:14:02;12.02;;;9.30;;
583;SDS011;27024;54.068;12.116;2023-04-10T10:16:04;14.18;;;10.00;;
583;SDS011;27024;54.068;12.116;2023-04-10T10:21:12;11.85;;;7.63;;
583;SDS011;27024;54.068;12.116;2023-04-10T10:23:41;11.73;;;8.73;;
583;SDS011;27024;54.068;12.116;2023-04-10T10:26:09;13.15;;;9.30;;
583;SDS011;27024;54.068;12.116;2023-04-10T10:28:36;11.85;;;8.77;;
583;SDS011;27024;54.068;12.116;2023-04-10T10:31:06;12.07;;;8.50;;
583;SDS011;27024;54.068;12.116;2023-04-10T10:33:36;11.77;;;7.82;;
583;SDS011;27024;54.068;12.116;2023-04-10T10:36:03;13.27;;;9.07;;
583;SDS011;27024;54.068;12.116;2023-04-10T10:38:31;14.30;;;9.48;;
583;SDS011;27024;54.068;12.116;2023-04-10T10:41:09;17.05;;;10.15;;
583;SDS011;27024;54.068;12.116;2023-04-10T10:44:00;12.55;;;9.07;;
583;SDS011;27024;54.068;12.116;2023-04-10T10:46:37;13.18;;;8.95;;
583;SDS011;27024;54.068;12.116;2023-04-10T10:49:09;13.45;;;9.50;;
583;SDS011;27024;54.068;12.116;2023-04-10T10:51:43;13.43;;;9.45;;
583;SDS011;27024;54.068;12.116;2023-04-10T10:54:33;14.40;;;9.15;;
583;SDS011;27024;54.068;12.116;2023-04-10T11:00:13;16.60;;;10.07;;
583;SDS011;27024;54.068;12.116;2023-04-10T11:02:41;13.65;;;9.05;;
583;SDS011;27024;54.068;12.116;2023-04-10T11:05:08;14.40;;;10.38;;
583;SDS011;27024;54.068;12.116;2023-04-10T11:13:34;13.82;;;9.10;;
583;SDS011;27024;54.068;12.116;2023-04-10T11:16:03;14.88;;;9.98;;
583;SDS011;27024;54.068;12.116;2023-04-10T11:24:00;13.50;;;9.40;;
583;SDS011;27024;54.068;12.116;2023-04-10T11:29:03;13.52;;;9.93;;
583;SDS011;27024;54.068;12.116;2023-04-10T11:31:31;12.70;;;9.15;;
583;SDS011;27024;54.068;12.116;2023-04-10T11:34:01;12.45;;;9.13;;
583;SDS011;27024;54.068;12.116;2023-04-10T11:36:29;12.63;;;8.30;;
583;SDS011;27024;54.068;12.116;2023-04-10T11:38:58;13.50;;;8.82;;
583;SDS011;27024;54.068;12.116;2023-04-10T11:41:51;13.02;;;8.60;;
583;SDS011;27024;54.068;12.116;2023-04-10T11:44:30;11.27;;;8.35;;
583;SDS011;27024;54.068;12.116;2023-04-10T11:47:00;10.57;;;7.55;;
583;SDS011;27024;54.068;12.116;2023-04-10T11:49:31;11.23;;;8.40;;
583;SDS011;27024;54.068;12.116;2023-04-10T11:52:00;12.20;;;8.43;;
583;SDS011;27024;54.068;12.116;2023-04-10T11:54:28;9.90;;;6.85;;
583;SDS011;27024;54.068;12.116;2023-04-10T11:56:59;10.98;;;8.23;;
583;SDS011;27024;54.068;12.116;2023-04-10T11:59:31;12.20;;;8.73;;
583;SDS011;27024;54.068;12.116;2023-04-10T12:02:06;12.85;;;8.32;;
583;SDS011;27024;54.068;12.116;2023-04-10T12:04:33;10.07;;;7.55;;
583;SDS011;27024;54.068;12.116;2023-04-10T12:07:01;10.27;;;7.55;;
583;SDS011;27024;54.068;12.116;2023-04-10T12:09:28;11.13;;;7.95;;
583;SDS011;27024;54.068;12.116;2023-04-10T12:12:02;10.18;;;7.13;;
583;SDS011;27024;54.068;12.116;2023-04-10T12:17:02;10.35;;;7.28;;
583;SDS011;27024;54.068;12.116;2023-04-10T12:19:31;9.40;;;6.50;;
583;SDS011;27024;54.068;12.116;2023-04-10T12:21:59;7.38;;;5.93;;
583;SDS011;27024;54.068;12.116;2023-04-10T12:24:49;7.50;;;5.30;;
583;SDS011;27024;54.068;12.116;2023-04-10T12:29:48;8.63;;;4.82;;
583;SDS011;27024;54.068;12.116;2023-04-10T12:32:17;5.82;;;4.55;;
583;SDS011;27024;54.068;12.116;2023-04-10T12:34:54;5.82;;;4.10;;
583;SDS011;27024;54.068;12.116;2023-04-10T12:37:24;5.95;;;4.10;;
583;SDS011;27024;54.068;12.116;2023-04-10T12:40:11;5.38;;;4.03;;
583;SDS011;27024;54.068;12.116;2023-04-10T12:42:39;6.60;;;3.90;;
583;SDS011;27024;54.068;12.116;2023-04-10T12:45:09;6.45;;;4.70;;
583;SDS011;27024;54.068;12.116;2023-04-10T12:47:43;6.10;;;4.50;;
583;SDS011;27024;54.068;12.116;2023-04-10T12:50:13;5.68;;;4.07;;
583;SDS011;27024;54.068;12.116;2023-04-10T12:52:44;6.95;;;4.35;;
583;SDS011;27024;54.068;12.116;2023-04-10T12:55:15;7.03;;;4.95;;
583;SDS011;27024;54.068;12.116;2023-04-10T12:57:45;6.47;;;4.28;;
583;SDS011;27024;54.068;12.116;2023-04-10T13:00:15;6.15;;;4.65;;
583;SDS011;27024;54.068;12.116;2023-04-10T13:02:46;6.93;;;4.93;;
583;SDS011;27024;54.068;12.116;2023-04-10T13:05:14;4.93;;;3.35;;
583;SDS011;27024;54.068;12.116;2023-04-10T13:07:41;5.90;;;4.07;;
583;SDS011;27024;54.068;12.116;2023-04-10T13:10:08;5.35;;;3.92;;
583;SDS011;27024;54.068;12.116;2023-04-10T13:12:35;4.72;;;3.92;;
583;SDS011;27024;54.068;12.116;2023-04-10T13:15:04;5.80;;;4.30;;
583;SDS011;27024;54.068;12.116;2023-04-10T13:17:33;5.25;;;4.10;;
583;SDS011;27024;54.068;12.116;2023-04-10T13:20:00;5.38;;;4.35;;
583;SDS011;27024;54.068;12.116;2023-04-10T13:22:27;4.57;;;3.53;;
583;SDS011;27024;54.068;12.116;2023-04-10T13:24:54;5.68;;;3.92;;
583;SDS011;27024;54.068;12.116;2023-04-10T13:27:21;5.65;;;3.83;;
583;SDS011;27024;54.068;12.116;2023-04-10T13:29:48;6.63;;;4.32;;
583;SDS011;27024;54.068;12.116;2023-04-10T13:32:14;5.55;;;3.63;;
583;SDS011;27024;54.068;12.116;2023-04-10T13:34:41;5.68;;;4.30;;
583;SDS011;27024;54.068;12.116;2023-04-10T13:37:09;6.80;;;4.30;;
583;SDS011;27024;54.068;12.116;2023-04-10T13:39:38;7.18;;;5.03;;
583;SDS011;27024;54.068;12.116;2023-04-10T13:42:05;7.90;;;5.55;;
583;SDS011;27024;54.068;12.116;2023-04-10T13:44:32;7.57;;;5.93;;
583;SDS011;27024;54.068;12.116;2023-04-10T13:47:00;6.05;;;4.20;;
583;SDS011;27024;54.068;12.116;2023-04-10T13:49:27;6.60;;;5.00;;
583;SDS011;27024;54.068;12.116;2023-04-10T13:51:57;6.63;;;5.40;;
583;SDS011;27024;54.068;12.116;2023-04-10T13:54:24;7.05;;;4.93;;
583;SDS011;27024;54.068;12.116;2023-04-10T13:56:51;6.88;;;4.78;;
583;SDS011;27024;54.068;12.116;2023-04-10T13:59:20;6.63;;;5.35;;
583;SDS011;27024;54.068;12.116;2023-04-10T14:01:46;7.70;;;6.03;;
583;SDS011;27024;54.068;12.116;2023-04-10T14:04:16;7.03;;;5.30;;
583;SDS011;27024;54.068;12.116;2023-04-10T14:06:43;6.97;;;4.43;;
583;SDS011;27024;54.068;12.116;2023-04-10T14:09:10;5.90;;;4.95;;
583;SDS011;27024;54.068;12.116;2023-04-10T14:11:37;6.95;;;5.25;;
583;SDS011;27024;54.068;12.116;2023-04-10T14:14:04;7.55;;;5.43;;
583;SDS011;27024;54.068;12.116;2023-04-10T14:16:31;8.10;;;5.55;;
583;SDS011;27024;54.068;12.116;2023-04-10T14:18:57;6.70;;;4.93;;
583;SDS011;27024;54.068;12.116;2023-04-10T14:21:24;6.55;;;5.57;;
583;SDS011;27024;54.068;12.116;2023-04-10T14:23:51;6.53;;;5.63;;
583;SDS011;27024;54.068;12.116;2023-04-10T14:26:18;7.80;;;5.30;;
583;SDS011;27024;54.068;12.116;2023-04-10T14:28:45;7.07;;;5.60;;
583;SDS011;27024;54.068;12.116;2023-04-10T14:31:11;6.72;;;5.38;;
583;SDS011;27024;54.068;12.116;2023-04-10T14:33:38;7.25;;;6.35;;
583;SDS011;27024;54.068;12.116;2023-04-10T14:36:05;7.70;;;5.15;;
583;SDS011;27024;54.068;12.116;2023-04-10T14:38:32;7.80;;;6.35;;
583;SDS011;27024;54.068;12.116;2023-04-10T14:40:59;8.02;;;5.53;;
583;SDS011;27024;54.068;12.116;2023-04-10T14:43:26;8.00;;;5.53;;
583;SDS011;27024;54.068;12.116;2023-04-10T14:45:53;6.45;;;5.40;;
583;SDS011;27024;54.068;12.116;2023-04-10T14:48:20;6.45;;;5.18;;
583;SDS011;27024;54.068;12.116;2023-04-10T14:50:48;7.50;;;5.78;;
583;SDS011;27024;54.068;12.116;2023-04-10T14:53:15;8.23;;;5.70;;
583;SDS011;27024;54.068;12.116;2023-04-10T14:55:42;8.98;;;6.00;;
583;SDS011;27024;54.068;12.116;2023-04-10T14:58:09;9.77;;;5.53;;
583;SDS011;27024;54.068;12.116;2023-04-10T15:00:36;7.75;;;6.32;;
583;SDS011;27024;54.068;12.116;2023-04-10T15:03:03;7.60;;;5.47;;
583;SDS011;27024;54.068;12.116;2023-04-10T15:05:31;7.80;;;6.25;;
583;SDS011;27024;54.068;12.116;2023-04-10T15:07:58;7.70;;;4.80;;
583;SDS011;27024;54.068;12.116;2023-04-10T15:10:27;7.93;;;5.13;;
583;SDS011;27024;54.068;12.116;2023-04-10T15:12:54;7.60;;;5.90;;
583;SDS011;27024;54.068;12.116;2023-04-10T15:15:21;9.23;;;5.68;;
583;SDS011;27024;54.068;12.116;2023-04-10T15:17:48;9.10;;;6.25;;
583;SDS011;27024;54.068;12.116;2023-04-10T15:20:15;8.45;;;5.60;;
583;SDS011;27024;54.068;12.116;2023-04-10T15:22:42;8.05;;;6.53;;
583;SDS011;27024;54.068;12.116;2023-04-10T15:25:10;7.93;;;6.05;;
583;SDS011;27024;54.068;12.116;2023-04-10T15:27:40;8.48;;;5.90;;
583;SDS011;27024;54.068;12.116;2023-04-10T15:30:07;7.05;;;5.78;;
583;SDS011;27024;54.068;12.116;2023-04-10T15:32:35;8.07;;;5.70;;
583;SDS011;27024;54.068;12.116;2023-04-10T15:35:04;6.80;;;5.50;;
583;SDS011;27024;54.068;12.116;2023-04-10T15:37:33;7.70;;;5.85;;
583;SDS011;27024;54.068;12.116;2023-04-10T15:40:02;7.45;;;5.43;;
583;SDS011;27024;54.068;12.116;2023-04-10T15:42:30;7.55;;;5.78;;
583;SDS011;27024;54.068;12.116;2023-04-10T15:44:57;7.30;;;5.70;;
583;SDS011;27024;54.068;12.116;2023-04-10T15:47:24;6.93;;;5.07;;
583;SDS011;27024;54.068;12.116;2023-04-10T15:49:51;6.90;;;5.22;;
583;SDS011;27024;54.068;12.116;2023-04-10T15:52:18;8.75;;;5.20;;